Time;durP1;ratioP1;P1;durP2;ratioP2;P2;SDS_P1;SDS_P2;PMS_P1;PMS_P2;Temp;Humidity;BMP_temperature;BMP_pressure;BME280_temperature;BME280_humidity;BME280_pressure;Samples;Min_cycle;Max_cycle;Signal;HPM_P1;HPM_P2
2022/01/13 08:09:25;;;;;;;29.55;19.25;;;;;;;;;;10393419;28;20034;-83
2022/01/13 08:14:26;;;;;;;33.05;23.10;;;;;;;;;;10391095;28;20069;-81
2022/01/13 08:19:45;;;;;;;;;;;;;;;;;;10396901;28;20026;-82
2022/01/13 08:24:46;;;;;;;38.70;23.25;;;;;;;;;;10420931;23;19925;-82
2022/01/13 08:29:47;;;;;;;;;;;;;;;;;;10414027;28;20473;-82
2022/01/13 08:34:50;;;;;;;34.95;23.13;;;;;;;;;;10411919;28;20273;-82
2022/01/13 08:39:51;;;;;;;34.05;22.38;;;;;;;;;;10400626;28;20037;-82
2022/01/13 08:44:52;;;;;;;;;;;;;;;;;;10416765;28;20062;-83
2022/01/13 08:49:53;;;;;;;40.78;25.38;;;;;;;;;;10420277;28;19905;-81
2022/01/13 08:54:55;;;;;;;;;;;;;;;;;;10429296;28;20100;-81
2022/01/13 08:59:59;;;;;;;34.42;21.90;;;;;;;;;;10426043;28;19905;-82
2022/01/13 09:05:04;;;;;;;30.45;20.58;;;;;;;;;;10419283;28;20029;-81
2022/01/13 09:10:07;;;;;;;26.35;18.08;;;;;;;;;;10419713;28;20021;-80
2022/01/13 09:15:17;;;;;;;29.38;19.88;;;;;;;;;;10421896;28;20026;-81
2022/01/13 09:20:19;;;;;;;28.92;19.73;;;;;;;;;;10439236;28;20018;-83
2022/01/13 09:25:20;;;;;;;29.42;21.38;;;;;;;;;;10421023;28;20068;-84
2022/01/13 09:30:21;;;;;;;;;;;;;;;;;;10421484;28;20097;-81
2022/01/13 09:35:22;;;;;;;29.45;19.73;;;;;;;;;;10433015;28;19923;-82
2022/01/13 09:40:23;;;;;;;26.35;17.75;;;;;;;;;;10417857;28;20080;-82
2022/01/13 09:45:28;;;;;;;51.40;32.40;;;;;;;;;;10416160;28;20032;-82
2022/01/13 09:50:29;;;;;;;21.65;15.85;;;;;;;;;;10424209;28;20034;-82
2022/01/13 09:55:29;;;;;;;25.25;17.95;;;;;;;;;;10430865;28;20112;-82
2022/01/13 10:00:31;;;;;;;;;;;;;;;;;;10420303;28;20033;-83
2022/01/13 10:05:37;;;;;;;19.30;14.07;;;;;;;;;;10414858;28;19945;-82
2022/01/13 10:10:37;;;;;;;43.90;28.45;;;;;;;;;;10412745;28;20434;-82
2022/01/13 10:21:06;;;;;;;25.60;17.35;;;;;;;;;;10435506;28;20307;-81
2022/01/13 10:26:12;;;;;;;23.65;16.17;;;;;;;;;;10420062;28;20101;-82
2022/01/13 10:31:13;;;;;;;24.85;16.27;;;;;;;;;;10414658;28;20026;-80
2022/01/13 10:36:14;;;;;;;;;;;;;;;;;;10414142;28;20471;-80
2022/01/13 10:41:31;;;;;;;24.23;17.08;;;;;;;;;;10419332;28;19905;-81
2022/01/13 10:46:52;;;;;;;30.02;21.35;;;;;;;;;;10416830;28;20493;-81
2022/01/13 10:51:53;;;;;;;24.75;17.23;;;;;;;;;;10418054;28;20025;-82
2022/01/13 10:56:54;;;;;;;;;;;;;;;;;;10417663;28;20034;-82
2022/01/13 11:02:08;;;;;;;23.63;16.45;;;;;;;;;;10411104;28;19905;-82
2022/01/13 11:07:24;;;;;;;30.23;20.55;;;;;;;;;;10429456;28;20018;-81
2022/01/13 11:12:35;;;;;;;39.30;24.27;;;;;;;;;;10407005;28;20034;-82
2022/01/13 11:17:38;;;;;;;21.00;14.68;;;;;;;;;;10411991;28;20045;-82
2022/01/13 11:22:40;;;;;;;26.98;18.80;;;;;;;;;;10415504;28;20018;-83
2022/01/13 11:27:42;;;;;;;23.40;14.98;;;;;;;;;;10416954;28;20048;-81
2022/01/13 11:32:44;;;;;;;22.38;15.75;;;;;;;;;;10411899;28;20025;-81
2022/01/13 11:37:45;;;;;;;28.65;19.45;;;;;;;;;;10413477;28;20029;-81
2022/01/13 11:42:47;;;;;;;28.85;19.13;;;;;;;;;;10430333;28;20083;-81
2022/01/13 11:47:48;;;;;;;31.85;20.02;;;;;;;;;;10414849;28;20041;-81
2022/01/13 11:52:52;;;;;;;35.90;23.05;;;;;;;;;;10415728;28;20477;-82
2022/01/13 11:58:10;;;;;;;50.03;31.67;;;;;;;;;;10415235;28;20025;-81
2022/01/13 12:03:28;;;;;;;25.98;18.20;;;;;;;;;;10418587;28;20072;-80
2022/01/13 12:08:46;;;;;;;27.98;20.25;;;;;;;;;;10418616;28;20401;-81
2022/01/13 12:13:49;;;;;;;29.27;20.70;;;;;;;;;;10414283;28;20033;-81
2022/01/13 12:19:05;;;;;;;31.83;22.17;;;;;;;;;;10414121;28;20030;-82
2022/01/13 12:24:07;;;;;;;35.58;23.33;;;;;;;;;;10415817;28;20025;-81
2022/01/13 12:29:21;;;;;;;23.88;17.02;;;;;;;;;;10435755;28;20026;-81
2022/01/13 12:34:22;;;;;;;27.17;19.00;;;;;;;;;;10417180;28;20100;-81
2022/01/13 12:39:24;;;;;;;25.92;17.80;;;;;;;;;;10414002;28;20048;-81
2022/01/13 12:49:45;;;;;;;22.48;16.85;;;;;;;;;;10434858;28;20037;-80
2022/01/13 12:54:46;;;;;;;;;;;;;;;;;;10415563;28;20124;-81
2022/01/13 12:59:47;;;;;;;20.38;14.82;;;;;;;;;;10425064;28;19968;-81
2022/01/13 13:04:48;;;;;;;;;;;;;;;;;;10426477;28;20123;-82
2022/01/13 13:09:51;;;;;;;19.17;13.43;;;;;;;;;;10427368;28;20426;-80
2022/01/13 13:20:42;;;;;;;35.05;22.85;;;;;;;;;;10459351;28;20440;-81
2022/01/13 13:25:44;;;;;;;32.83;23.25;;;;;;;;;;10407408;28;20037;-80
2022/01/13 13:30:46;;;;;;;30.33;20.63;;;;;;;;;;10420603;28;20079;-81
2022/01/13 13:35:47;;;;;;;27.90;20.67;;;;;;;;;;10423042;28;20025;-81
2022/01/13 13:40:48;;;;;;;;;;;;;;;;;;10422149;28;20033;-81
2022/01/13 13:45:58;;;;;;;29.85;21.15;;;;;;;;;;10422516;28;20003;-81
2022/01/13 13:50:59;;;;;;;27.55;20.33;;;;;;;;;;10442482;28;20128;-80
2022/01/13 13:56:00;;;;;;;;;;;;;;;;;;10423075;28;20033;-81
2022/01/13 14:01:03;;;;;;;31.27;22.15;;;;;;;;;;10441078;28;19905;-80
2022/01/13 14:06:04;;;;;;;24.88;18.40;;;;;;;;;;10436450;28;20025;-80
2022/01/13 14:11:06;;;;;;;29.35;21.08;;;;;;;;;;10443297;28;20033;-82
2022/01/13 14:16:07;;;;;;;23.42;16.90;;;;;;;;;;10430034;28;20029;-82
2022/01/13 14:21:08;;;;;;;;;;;;;;;;;;10443959;28;20033;-82
2022/01/13 14:26:13;;;;;;;30.83;20.20;;;;;;;;;;10449596;28;19953;-83
2022/01/13 14:31:15;;;;;;;20.98;15.18;;;;;;;;;;10432718;28;20029;-82
2022/01/13 14:36:19;;;;;;;23.95;16.77;;;;;;;;;;10430518;28;20029;-83
2022/01/13 14:41:33;;;;;;;22.98;15.40;;;;;;;;;;10442561;28;20021;-82
2022/01/13 14:46:38;;;;;;;20.98;16.08;;;;;;;;;;10443956;28;20025;-83
2022/01/13 14:51:43;;;;;;;24.00;16.88;;;;;;;;;;10429025;28;20029;-82
2022/01/13 14:56:44;;;;;;;23.02;16.67;;;;;;;;;;10455460;28;20552;-81
2022/01/13 15:01:45;;;;;;;24.75;16.65;;;;;;;;;;10454646;28;20114;-82
2022/01/13 15:06:46;;;;;;;18.38;13.70;;;;;;;;;;10446155;28;20032;-82
2022/01/13 15:11:48;;;;;;;;;;;;;;;;;;10449281;28;20041;-82
2022/01/13 15:16:50;;;;;;;19.15;14.02;;;;;;;;;;10439912;28;19912;-81
2022/01/13 15:21:51;;;;;;;20.73;14.85;;;;;;;;;;10437996;28;20025;-83
2022/01/13 15:26:51;;;;;;;;;;;;;;;;;;10469256;28;20034;-79
2022/01/13 15:31:53;;;;;;;21.33;15.57;;;;;;;;;;10442283;28;19974;-82
2022/01/13 15:36:54;;;;;;;22.02;15.50;;;;;;;;;;10433668;28;20038;-82
2022/01/13 15:41:55;;;;;;;20.95;15.57;;;;;;;;;;10437562;28;20070;-82
2022/01/13 15:46:56;;;;;;;;;;;;;;;;;;10437436;28;20065;-82
2022/01/13 15:51:58;;;;;;;20.95;14.18;;;;;;;;;;10434710;28;19905;-82
2022/01/13 15:56:59;;;;;;;22.73;15.75;;;;;;;;;;10434753;28;20147;-84
2022/01/13 16:01:59;;;;;;;;;;;;;;;;;;10434737;28;20108;-81
2022/01/13 16:07:01;;;;;;;26.15;18.70;;;;;;;;;;10436454;28;19956;-81
2022/01/13 16:12:02;;;;;;;28.83;19.33;;;;;;;;;;10432286;28;20040;-81
2022/01/13 16:17:03;;;;;;;27.40;19.15;;;;;;;;;;10431734;28;20026;-81
2022/01/13 16:22:05;;;;;;;29.83;19.05;;;;;;;;;;10428505;28;20032;-82
2022/01/13 16:27:06;;;;;;;28.05;19.40;;;;;;;;;;10424057;28;20030;-81
2022/01/13 16:32:07;;;;;;;27.23;18.77;;;;;;;;;;10424698;28;20025;-81
2022/01/13 16:37:08;;;;;;;27.45;18.98;;;;;;;;;;10442063;28;20041;-83
2022/01/13 16:42:09;;;;;;;;;;;;;;;;;;10444528;28;20029;-83
2022/01/13 16:47:12;;;;;;;20.45;15.48;;;;;;;;;;10428152;28;20007;-83
2022/01/13 16:52:13;;;;;;;22.13;15.52;;;;;;;;;;10427602;28;20501;-83
2022/01/13 16:57:15;;;;;;;21.00;15.40;;;;;;;;;;10428964;28;20101;-82
2022/01/13 17:02:15;;;;;;;;;;;;;;;;;;10427256;28;20456;-83
2022/01/13 17:07:16;;;;;;;17.05;13.00;;;;;;;;;;10426496;28;19969;-83
2022/01/13 17:12:17;;;;;;;19.83;14.88;;;;;;;;;;10441306;28;20036;-83
2022/01/13 17:17:18;;;;;;;;;;;;;;;;;;10443111;28;20094;-83
2022/01/13 17:22:22;;;;;;;20.20;14.73;;;;;;;;;;10440301;28;19992;-86
2022/01/13 17:33:33;;;;;;;28.83;19.45;;;;;;;;;;10448156;28;20029;-85
2022/01/13 17:44:15;;;;;;;24.98;17.17;;;;;;;;;;10487690;22;20049;-87
2022/01/13 17:55:22;;;;;;;25.85;18.45;;;;;;;;;;10395905;28;20038;-85
2022/01/13 18:00:41;;;;;;;23.75;16.52;;;;;;;;;;10379196;28;20022;-85
2022/01/13 18:05:46;;;;;;;22.05;16.17;;;;;;;;;;10371461;28;20034;-85
